Paynes Creek, California
Current Conditions -  °F | °C
As of 11:54 AM on Saturday 25 Oct 2014 (Local Time) from KRBL Reporting Station
Broken Clouds Broken Clouds  
Wind Chill: 63°   Ceiling: 2000
Heat Index: 63°   Visibility: 10mi
Dew Point: 55°   Wind: 29mph
Humidity: 75%   Direction: 150°SSE
Pressure: 29.9"   Gusts: 41mph
Location:  40.34°N, 121.91°W
Report Text: KRBL 251854Z AUTO 15025G36KT 10SM BKN020 BKN025 17/13 A2990 RMK AO2 PK WND 15037/1807 SLP124 T01720128
Loading
Personal Weather Stations






























Interactive Weather Map
Tropical Storm Tracking
New forecast layout! Learn more

10-Day Weather Forecast

Advertisements
Track Severe Weather on mobile